Trident — ZCYT9 — position and weather

sailwx.info

Track history (hours):
 
Tides and Currents Weather Stations Pressure Air Temp Water Temp Dewpoint Dewpoint Depression Visibility Wind Speed Wind Dir Waves Ship Positions

Trident

Last reported at 2015-Aug-02 05:33 UTC. Time now 2015-Aug-02 14:19 UTC.
Position N 40°37' E 014°19'.

Length 65 m; draft 3.4 m.

Type: Pleasure craft. MMSI: 319764000.

Date/timePositionNaut miles runAvg speedWind from/ knotsBaromVisibWave heightAir tempDewpointWater temp
2015-Aug-02 05:33N 40°37' E 014°19'3 3.0
2015-Aug-02 04:33N 40°38' E 014°23'0 0.0
2015-Aug-02 03:33N 40°38' E 014°23'0 0.0
2015-Aug-02 02:33N 40°38' E 014°23'0 0.0
2015-Aug-02 01:33N 40°38' E 014°23'0 0.0
2015-Aug-02 00:33N 40°38' E 014°23'0 0.0
2015-Aug-01 23:33N 40°38' E 014°23'0 0.0
2015-Aug-01 22:32N 40°38' E 014°23'1 0.5
2015-Aug-01 21:33N 40°38' E 014°22'1212.4
2015-Aug-01 20:33N 40°26' E 014°23'3215.0
2015-Aug-01 18:26N 39°56' E 014°39'1614.1
2015-Aug-01 17:18N 39°42' E 014°47'2514.1
2015-Aug-01 15:33N 39°20' E 015°01'1814.1
2015-Aug-01 14:17N 39°03' E 015°09'1114.5
2015-Aug-01 13:33N 38°53' E 015°14'5 4.9
2015-Aug-01 12:33N 38°48' E 015°15'0 0.0
2015-Aug-01 09:33N 38°48' E 015°15'0 0.0
2015-Aug-01 08:33N 38°48' E 015°15'4 2.2
2015-Aug-01 06:33N 38°45' E 015°18'1413.9
2015-Aug-01 05:33N 38°33' E 015°28'1414.1
2015-Aug-01 04:33N 38°22' E 015°39'1212.2
2015-Aug-01 03:34N 38°10' E 015°37'1414.1
2015-Aug-01 02:34N 37°56' E 015°32'14 2.1
2015-Jul-31 20:13N 37°50' E 015°17'710.7
2015-Jul-31 19:33N 37°51' E 015°26'1414.5
2015-Jul-31 18:34N 37°52' E 015°44'  
Track history (hours):
 
Tides and Currents Weather Stations Pressure Air Temp Water Temp Dewpoint Dewpoint Depression Visibility Wind Speed Wind Dir Waves Ship Positions

Trident

Last reported at 2015-Aug-02 05:33 UTC. Time now 2015-Aug-02 14:19 UTC.
Position N 40°37' E 014°19'.

Length 65 m; draft 3.4 m.

Type: Pleasure craft. MMSI: 319764000.

Date/timePositionNaut miles runAvg speedWind from/ knotsBaromVisibWave heightAir tempDewpointWater temp
2015-Aug-02 05:33N 40°37' E 014°19'3 3.0
2015-Aug-02 04:33N 40°38' E 014°23'0 0.0
2015-Aug-02 03:33N 40°38' E 014°23'0 0.0
2015-Aug-02 02:33N 40°38' E 014°23'0 0.0
2015-Aug-02 01:33N 40°38' E 014°23'0 0.0
2015-Aug-02 00:33N 40°38' E 014°23'0 0.0
2015-Aug-01 23:33N 40°38' E 014°23'0 0.0
2015-Aug-01 22:32N 40°38' E 014°23'1 0.5
2015-Aug-01 21:33N 40°38' E 014°22'1212.4
2015-Aug-01 20:33N 40°26' E 014°23'3215.0
2015-Aug-01 18:26N 39°56' E 014°39'1614.1
2015-Aug-01 17:18N 39°42' E 014°47'2514.1
2015-Aug-01 15:33N 39°20' E 015°01'1814.1
2015-Aug-01 14:17N 39°03' E 015°09'1114.5
2015-Aug-01 13:33N 38°53' E 015°14'5 4.9
2015-Aug-01 12:33N 38°48' E 015°15'0 0.0
2015-Aug-01 09:33N 38°48' E 015°15'0 0.0
2015-Aug-01 08:33N 38°48' E 015°15'4 2.2
2015-Aug-01 06:33N 38°45' E 015°18'1413.9
2015-Aug-01 05:33N 38°33' E 015°28'1414.1
2015-Aug-01 04:33N 38°22' E 015°39'1212.2
2015-Aug-01 03:34N 38°10' E 015°37'1414.1
2015-Aug-01 02:34N 37°56' E 015°32'14 2.1
2015-Jul-31 20:13N 37°50' E 015°17'710.7
2015-Jul-31 19:33N 37°51' E 015°26'1414.5
2015-Jul-31 18:34N 37°52' E 015°44'  

Dump ship's entire track history